createdAt,value
2018-11-23T00:00:33.095Z,96.60
2018-11-23T00:03:20.866Z,96.60
2018-11-23T00:06:08.571Z,96.50
2018-11-23T00:08:56.151Z,96.20
2018-11-23T00:11:43.894Z,96.30
2018-11-23T00:14:31.585Z,96.30
2018-11-23T00:20:14.311Z,96.20
2018-11-23T00:23:01.947Z,96.20
2018-11-23T00:25:49.666Z,96.40
2018-11-23T00:28:37.367Z,96.50
2018-11-23T00:31:25.160Z,96.60
2018-11-23T00:34:12.887Z,96.60
2018-11-23T00:37:00.503Z,96.60
2018-11-23T00:39:48.267Z,96.60
2018-11-23T00:42:35.970Z,96.60
2018-11-23T00:48:17.805Z,96.60
2018-11-23T00:51:05.475Z,96.60
2018-11-23T00:53:53.259Z,96.60
2018-11-23T00:56:40.802Z,96.60
2018-11-23T01:02:23.248Z,96.60
2018-11-23T01:05:11.439Z,96.60
2018-11-23T01:07:59.131Z,96.60
2018-11-23T01:13:40.700Z,96.60
2018-11-23T01:16:28.418Z,96.60
2018-11-23T01:25:03.117Z,96.60
2018-11-23T01:30:56.669Z,96.60
2018-11-23T01:33:25.524Z,96.60
2018-11-23T01:35:53.755Z,96.60
2018-11-23T01:38:22.018Z,96.60
2018-11-23T01:40:50.203Z,96.60
2018-11-23T01:43:18.454Z,96.60
2018-11-23T01:45:46.693Z,96.60
2018-11-23T01:48:15.439Z,96.60
2018-11-23T01:50:43.820Z,96.50
2018-11-23T01:53:12.313Z,96.50
2018-11-23T01:55:41.020Z,96.60
2018-11-23T01:58:09.810Z,96.60
2018-11-23T02:00:38.266Z,96.50
2018-11-23T02:03:06.443Z,96.50
2018-11-23T02:05:35.500Z,96.10
2018-11-23T02:08:03.643Z,95.90
2018-11-23T02:10:32.737Z,95.60
2018-11-23T02:13:01.326Z,95.50
2018-11-23T02:15:29.695Z,95.40
2018-11-23T02:17:57.876Z,95.70
2018-11-23T02:20:26.154Z,96.00
2018-11-23T02:22:54.961Z,96.20
2018-11-23T02:25:23.408Z,96.50
2018-11-23T02:27:51.742Z,96.40
2018-11-23T02:30:22.514Z,96.40
2018-11-23T02:33:03.519Z,96.60
2018-11-23T02:35:31.697Z,96.60
2018-11-23T02:38:00.020Z,96.60
2018-11-23T02:40:28.275Z,96.60
2018-11-23T02:42:56.422Z,96.60
2018-11-23T02:45:24.656Z,96.60
2018-11-23T02:47:52.933Z,96.60
2018-11-23T02:50:21.367Z,96.40
2018-11-23T02:52:50.508Z,96.20
2018-11-23T02:55:19.873Z,96.20
2018-11-23T02:57:48.047Z,96.00
2018-11-23T03:00:18.358Z,95.80
2018-11-23T03:02:46.682Z,95.30
2018-11-23T03:05:16.584Z,95.10
2018-11-23T03:07:44.808Z,94.70
2018-11-23T03:10:13.938Z,94.40
2018-11-23T03:12:43.069Z,94.40
2018-11-23T03:15:13.193Z,95.00
2018-11-23T03:17:41.724Z,95.00
2018-11-23T03:20:12.145Z,95.00
2018-11-23T03:22:40.649Z,94.90
2018-11-23T03:25:10.001Z,94.90
2018-11-23T03:27:38.257Z,95.00
2018-11-23T03:30:15.882Z,94.90
2018-11-23T03:32:45.318Z,95.20
2018-11-23T03:35:13.600Z,95.20
2018-11-23T03:37:41.993Z,94.90
2018-11-23T03:40:10.198Z,94.90
2018-11-23T03:42:38.353Z,94.80
2018-11-23T03:45:08.153Z,94.70
2018-11-23T03:47:36.864Z,94.50
2018-11-23T03:50:05.923Z,94.10
2018-11-23T03:52:34.727Z,94.10
2018-11-23T03:55:03.180Z,94.00
2018-11-23T03:57:31.457Z,94.00
2018-11-23T03:59:59.942Z,94.30
2018-11-23T04:02:28.327Z,94.30
2018-11-23T04:04:57.480Z,94.70
2018-11-23T04:07:26.543Z,94.90
2018-11-23T04:09:54.631Z,95.30
2018-11-23T04:12:23.638Z,95.10
2018-11-23T04:14:51.834Z,95.00
2018-11-23T04:17:20.113Z,95.00
2018-11-23T04:19:48.349Z,94.90
2018-11-23T04:22:16.667Z,94.50
2018-11-23T04:24:44.837Z,94.80
2018-11-23T04:27:13.501Z,95.50
2018-11-23T04:29:42.065Z,95.50
2018-11-23T04:32:10.223Z,95.60
2018-11-23T04:34:38.612Z,95.60
2018-11-23T04:37:06.717Z,95.10
2018-11-23T04:39:34.861Z,94.40
2018-11-23T04:42:03.173Z,94.60
2018-11-23T04:44:31.293Z,94.60
2018-11-23T04:47:00.084Z,94.70
2018-11-23T04:49:47.508Z,95.40
2018-11-23T04:52:15.728Z,95.60
2018-11-23T04:54:43.885Z,95.50
2018-11-23T04:57:12.101Z,95.10
2018-11-23T04:59:40.790Z,95.00
2018-11-23T05:02:09.044Z,95.20
2018-11-23T05:04:37.212Z,95.60
2018-11-23T05:07:05.739Z,96.20
2018-11-23T05:09:34.064Z,96.50
2018-11-23T05:12:08.030Z,96.50
2018-11-23T05:14:36.164Z,96.50
2018-11-23T05:17:04.462Z,96.40
2018-11-23T05:19:32.716Z,96.60
2018-11-23T05:22:00.949Z,96.40
2018-11-23T05:24:29.096Z,96.20
2018-11-23T05:26:58.302Z,96.20
2018-11-23T05:29:26.447Z,96.40
2018-11-23T05:31:54.949Z,96.50
2018-11-23T05:34:23.744Z,96.50
2018-11-23T05:36:51.918Z,96.60
2018-11-23T05:39:20.317Z,96.60
2018-11-23T05:41:48.470Z,96.60
2018-11-23T05:44:16.939Z,96.60
2018-11-23T05:46:45.072Z,96.60
2018-11-23T05:49:13.540Z,96.60
2018-11-23T05:51:42.565Z,96.60
2018-11-23T05:54:10.810Z,96.60
2018-11-23T05:56:39.527Z,96.60
2018-11-23T05:59:07.804Z,96.60
2018-11-23T06:01:36.115Z,96.60
2018-11-23T06:04:04.412Z,96.50
2018-11-23T06:06:32.800Z,96.40
2018-11-23T06:09:00.867Z,95.90
2018-11-23T06:11:47.920Z,95.60
2018-11-23T06:14:16.145Z,95.40
2018-11-23T06:16:44.359Z,95.50
2018-11-23T06:19:13.061Z,95.30
2018-11-23T06:21:41.262Z,95.30
2018-11-23T06:24:09.356Z,95.30
2018-11-23T06:26:37.622Z,95.40
2018-11-23T06:29:05.997Z,95.50
2018-11-23T06:31:34.892Z,95.50
2018-11-23T06:34:03.024Z,95.60
2018-11-23T06:36:31.360Z,95.90
2018-11-23T06:38:59.953Z,96.10
2018-11-23T06:41:28.128Z,96.30
2018-11-23T06:43:56.223Z,96.50
2018-11-23T06:46:25.097Z,96.60
2018-11-23T06:48:53.229Z,96.60
2018-11-23T06:51:21.570Z,96.30
2018-11-23T06:53:49.959Z,95.90
2018-11-23T06:56:18.340Z,95.90
2018-11-23T06:58:46.967Z,95.60
2018-11-23T07:01:15.043Z,95.60
2018-11-23T07:03:43.294Z,95.60
2018-11-23T07:06:11.537Z,95.60
2018-11-23T07:08:39.819Z,95.50
2018-11-23T07:11:08.433Z,95.50
2018-11-23T07:13:36.741Z,96.00
2018-11-23T07:16:04.920Z,96.50
2018-11-23T07:18:33.062Z,96.40
2018-11-23T07:21:01.357Z,96.10
2018-11-23T07:23:29.844Z,94.90
2018-11-23T07:25:58.201Z,94.40
2018-11-23T07:28:26.425Z,94.20
2018-11-23T07:30:55.913Z,93.80
2018-11-23T07:33:23.090Z,93.10
2018-11-23T07:35:51.376Z,93.00
2018-11-23T07:38:19.605Z,94.20
2018-11-23T07:40:59.118Z,92.70
2018-11-23T07:43:46.098Z,92.70
2018-11-23T07:46:15.305Z,93.40
2018-11-23T07:48:43.513Z,93.90
2018-11-23T07:51:12.137Z,93.20
2018-11-23T07:53:40.453Z,88.90
2018-11-23T07:56:26.866Z,88.40
2018-11-23T07:59:13.486Z,89.10
2018-11-23T08:01:42.500Z,87.50
2018-11-23T08:04:10.754Z,86.80
2018-11-23T08:06:39.284Z,82.60
2018-11-23T08:09:08.781Z,82.40
2018-11-23T08:11:37.553Z,81.10
2018-11-23T08:14:06.185Z,80.50
2018-11-23T08:16:34.714Z,78.90
2018-11-23T08:19:02.909Z,81.70
2018-11-23T08:21:32.157Z,82.70
2018-11-23T08:24:00.404Z,79.10
2018-11-23T08:26:28.573Z,80.00
2018-11-23T08:28:56.895Z,79.60
2018-11-23T08:31:25.182Z,78.80
2018-11-23T08:33:53.517Z,77.50
2018-11-23T08:36:21.766Z,73.50
2018-11-23T08:38:50.771Z,74.80
2018-11-23T08:41:19.099Z,71.50
2018-11-23T08:43:47.961Z,71.50
2018-11-23T08:46:16.459Z,68.80
2018-11-23T08:48:44.917Z,69.00
2018-11-23T08:51:13.650Z,70.10
2018-11-23T08:53:41.806Z,70.10
2018-11-23T08:56:10.638Z,70.10
2018-11-23T08:58:39.687Z,68.50
2018-11-23T09:01:07.789Z,68.00
2018-11-23T09:03:36.095Z,68.80
2018-11-23T09:06:04.279Z,67.50
2018-11-23T09:08:32.473Z,64.90
2018-11-23T09:11:00.774Z,63.80
2018-11-23T09:13:29.812Z,62.60
2018-11-23T09:15:58.155Z,61.10
2018-11-23T09:18:26.356Z,58.20
2018-11-23T09:20:54.533Z,58.40
2018-11-23T09:23:22.876Z,55.90
2018-11-23T09:25:51.657Z,55.80
2018-11-23T09:28:19.920Z,53.50
2018-11-23T09:30:48.086Z,51.70
2018-11-23T09:33:17.218Z,51.40
2018-11-23T09:35:46.770Z,50.70
2018-11-23T09:38:15.420Z,51.70
2018-11-23T09:40:43.666Z,53.10
2018-11-23T09:43:11.914Z,55.90
2018-11-23T09:45:40.111Z,55.70
2018-11-23T09:48:08.944Z,55.80
2018-11-23T09:50:37.209Z,55.20
2018-11-23T09:53:05.813Z,54.80
2018-11-23T09:55:35.356Z,54.20
2018-11-23T09:58:04.163Z,55.60
2018-11-23T10:00:34.872Z,55.20
2018-11-23T10:03:03.118Z,56.30
2018-11-23T10:05:31.916Z,55.50
2018-11-23T10:08:02.612Z,54.50
2018-11-23T10:10:31.210Z,54.10
2018-11-23T10:12:59.953Z,53.90
2018-11-23T10:15:30.069Z,53.20
2018-11-23T10:17:58.230Z,54.10
2018-11-23T10:20:28.077Z,50.90
2018-11-23T10:22:56.638Z,51.00
2018-11-23T10:25:27.352Z,52.00
2018-11-23T10:27:55.517Z,50.10
2018-11-23T10:30:26.216Z,50.90
2018-11-23T10:32:56.163Z,50.50
2018-11-23T10:35:25.051Z,49.30
2018-11-23T10:37:54.865Z,49.60
2018-11-23T10:40:24.365Z,48.40
2018-11-23T10:42:52.500Z,47.00
2018-11-23T10:45:23.132Z,47.30
2018-11-23T10:47:52.557Z,48.30
2018-11-23T10:50:24.165Z,48.60
2018-11-23T10:52:52.576Z,50.70
2018-11-23T10:55:23.421Z,51.90
2018-11-23T10:57:51.773Z,51.10
2018-11-23T11:00:26.239Z,51.30
2018-11-23T11:03:00.344Z,50.80
2018-11-23T11:05:34.852Z,51.20
2018-11-23T11:08:03.901Z,51.60
2018-11-23T11:10:32.085Z,52.10
2018-11-23T11:13:00.903Z,51.00
2018-11-23T11:15:29.218Z,51.80
2018-11-23T11:17:57.515Z,51.60
2018-11-23T11:20:25.814Z,51.60
2018-11-23T11:22:54.120Z,52.10
2018-11-23T11:25:22.350Z,51.90
2018-11-23T11:27:50.728Z,51.30
2018-11-23T11:30:19.548Z,52.00
2018-11-23T11:32:48.194Z,51.20
2018-11-23T11:35:16.430Z,50.70
2018-11-23T11:37:45.000Z,49.90
2018-11-23T11:40:15.011Z,50.20
2018-11-23T11:42:43.905Z,50.80
2018-11-23T11:45:13.477Z,51.30
2018-11-23T11:47:43.047Z,51.30
2018-11-23T11:50:12.072Z,51.50
2018-11-23T11:52:42.371Z,51.60
2018-11-23T11:55:12.824Z,52.60
2018-11-23T11:57:41.858Z,51.70
2018-11-23T12:00:13.615Z,52.90
2018-11-23T12:02:41.718Z,51.90
2018-11-23T12:05:11.750Z,51.60
2018-11-23T12:07:40.475Z,52.10
2018-11-23T12:10:12.728Z,52.10
2018-11-23T12:12:41.771Z,51.90
2018-11-23T12:15:10.918Z,51.70
2018-11-23T12:17:39.202Z,51.40
2018-11-23T12:20:10.405Z,51.30
2018-11-23T12:22:39.392Z,51.40
2018-11-23T12:25:07.838Z,52.50
2018-11-23T12:27:36.125Z,53.00
2018-11-23T12:30:06.591Z,54.00
2018-11-23T12:32:34.753Z,55.90
2018-11-23T12:35:03.022Z,55.70
2018-11-23T12:37:31.426Z,55.20
2018-11-23T12:39:59.666Z,55.90
2018-11-23T12:42:27.750Z,56.10
2018-11-23T12:44:56.700Z,56.00
2018-11-23T12:47:25.520Z,56.80
2018-11-23T12:49:53.809Z,56.60
2018-11-23T12:52:22.116Z,55.80
2018-11-23T12:54:50.850Z,54.80
2018-11-23T12:57:19.185Z,54.00
2018-11-23T12:59:47.529Z,52.10
2018-11-23T13:02:15.621Z,50.80
2018-11-23T13:04:43.798Z,51.90
2018-11-23T13:07:12.145Z,52.30
2018-11-23T13:09:40.634Z,52.10
2018-11-23T13:12:09.242Z,52.80
2018-11-23T13:14:37.535Z,54.10
2018-11-23T13:17:06.044Z,55.10
2018-11-23T13:19:34.225Z,54.90
2018-11-23T13:22:02.818Z,56.10
2018-11-23T13:24:31.034Z,57.80
2018-11-23T13:26:59.220Z,59.30
2018-11-23T13:29:27.340Z,58.90
2018-11-23T13:31:55.690Z,59.30
2018-11-23T13:34:23.861Z,60.10
2018-11-23T13:36:52.354Z,61.00
2018-11-23T13:39:20.494Z,62.10
2018-11-23T13:41:48.585Z,62.90
2018-11-23T13:44:16.745Z,62.50
2018-11-23T13:46:44.870Z,62.00
2018-11-23T13:49:13.026Z,62.80
2018-11-23T13:51:41.226Z,63.80
2018-11-23T13:54:09.691Z,65.40
2018-11-23T13:56:38.628Z,64.90
2018-11-23T13:59:07.229Z,63.90
2018-11-23T14:01:35.635Z,64.40
2018-11-23T14:04:03.878Z,64.50
2018-11-23T14:06:32.353Z,64.60
2018-11-23T14:09:00.861Z,65.90
2018-11-23T14:11:30.483Z,65.90
2018-11-23T14:13:59.124Z,66.70
2018-11-23T14:16:27.349Z,67.10
2018-11-23T14:18:55.675Z,67.80
2018-11-23T14:21:24.042Z,68.30
2018-11-23T14:23:52.253Z,69.00
2018-11-23T14:26:20.725Z,69.30
2018-11-23T14:28:49.417Z,70.00
2018-11-23T14:31:17.720Z,70.80
2018-11-23T14:33:46.547Z,71.30
2018-11-23T14:36:14.889Z,71.80
2018-11-23T14:38:43.017Z,72.40
2018-11-23T14:41:11.281Z,73.30
2018-11-23T14:43:39.951Z,73.80
2018-11-23T14:46:08.946Z,74.50
2018-11-23T14:48:37.183Z,75.80
2018-11-23T14:51:05.460Z,78.00
2018-11-23T14:53:34.182Z,79.00
2018-11-23T14:56:02.421Z,80.10
2018-11-23T14:58:31.386Z,82.20
2018-11-23T15:00:59.697Z,83.80
2018-11-23T15:03:28.101Z,84.90
2018-11-23T15:05:56.340Z,86.00
2018-11-23T15:08:24.572Z,86.80
2018-11-23T15:10:52.733Z,87.50
2018-11-23T15:13:21.281Z,88.20
2018-11-23T15:15:49.728Z,88.60
2018-11-23T15:18:18.948Z,89.00
2018-11-23T15:20:47.232Z,89.40
2018-11-23T15:23:17.927Z,90.10
2018-11-23T15:25:46.419Z,90.30
2018-11-23T15:28:15.242Z,90.60
2018-11-23T15:30:44.578Z,90.90
2018-11-23T15:34:42.354Z,91.30
2018-11-23T15:37:10.651Z,91.60
2018-11-23T15:39:38.854Z,92.40
2018-11-23T15:42:07.800Z,92.80
2018-11-23T15:44:36.390Z,93.00
2018-11-23T15:47:04.612Z,92.90
2018-11-23T15:49:32.878Z,92.60
2018-11-23T15:52:01.089Z,92.40
2018-11-23T15:54:29.452Z,92.30
2018-11-23T15:56:58.508Z,92.20
2018-11-23T15:59:26.876Z,92.20
2018-11-23T16:01:55.007Z,92.20
2018-11-23T16:04:23.213Z,92.30
2018-11-23T16:06:51.578Z,92.40
2018-11-23T16:09:20.135Z,92.60
2018-11-23T16:11:48.773Z,92.70
2018-11-23T16:14:17.177Z,92.80
2018-11-23T16:16:45.559Z,92.80
2018-11-23T16:19:13.842Z,93.10
2018-11-23T16:21:41.899Z,93.30
2018-11-23T16:24:09.993Z,93.50
2018-11-23T16:26:38.324Z,93.70
2018-11-23T16:29:06.607Z,93.80
2018-11-23T16:31:35.604Z,93.80
2018-11-23T16:34:04.260Z,93.90
2018-11-23T16:36:32.474Z,94.00
2018-11-23T16:39:00.615Z,94.00
2018-11-23T16:41:28.951Z,94.00
2018-11-23T16:43:57.179Z,93.90
2018-11-23T16:46:25.461Z,93.80
2018-11-23T16:48:53.980Z,93.70
2018-11-23T16:51:22.143Z,93.50
2018-11-23T16:53:50.389Z,93.30
2018-11-23T16:56:18.632Z,93.30
2018-11-23T16:58:47.785Z,93.10
2018-11-23T17:01:16.094Z,93.10
2018-11-23T17:03:44.249Z,93.20
2018-11-23T17:06:12.632Z,93.10
2018-11-23T17:08:40.992Z,93.10
2018-11-23T17:11:09.452Z,93.10
2018-11-23T17:13:38.020Z,92.90
2018-11-23T17:16:06.472Z,92.70
2018-11-23T17:18:34.984Z,92.60
2018-11-23T17:21:04.076Z,92.60
2018-11-23T17:23:32.420Z,92.70
2018-11-23T17:26:00.609Z,92.60
2018-11-23T17:28:29.034Z,92.70
2018-11-23T17:30:57.291Z,92.80
2018-11-23T17:33:25.542Z,92.90
2018-11-23T17:35:55.369Z,92.80
2018-11-23T17:38:23.728Z,92.80
2018-11-23T17:40:52.193Z,92.90
2018-11-23T17:43:20.373Z,92.90
2018-11-23T17:45:48.516Z,93.00
2018-11-23T17:48:16.659Z,92.80
2018-11-23T17:50:45.158Z,92.50
2018-11-23T17:53:13.552Z,92.40
2018-11-23T17:55:42.142Z,92.40
2018-11-23T17:58:10.929Z,92.40
2018-11-23T18:00:39.752Z,92.30
2018-11-23T18:03:07.965Z,92.40
2018-11-23T18:05:36.708Z,92.50
2018-11-23T18:08:05.769Z,92.70
2018-11-23T18:10:34.619Z,92.80
2018-11-23T18:13:03.826Z,92.90
2018-11-23T18:15:34.605Z,92.90
2018-11-23T18:18:03.865Z,92.80
2018-11-23T18:20:32.441Z,92.80
2018-11-23T18:23:01.445Z,92.90
2018-11-23T18:25:31.165Z,92.80
2018-11-23T18:28:00.470Z,92.70
2018-11-23T18:30:30.055Z,92.70
2018-11-23T18:32:58.262Z,92.60
2018-11-23T18:35:39.352Z,92.60
2018-11-23T18:38:07.680Z,92.70
2018-11-23T18:40:37.434Z,93.00
2018-11-23T18:43:05.149Z,93.20
2018-11-23T18:45:33.455Z,93.20
2018-11-23T18:48:01.581Z,93.20
2018-11-23T18:50:30.103Z,93.10
2018-11-23T18:52:58.304Z,93.30
2018-11-23T18:55:26.657Z,93.50
2018-11-23T18:57:56.069Z,93.80
2018-11-23T19:00:24.805Z,93.80
2018-11-23T19:02:52.922Z,93.60
2018-11-23T19:05:24.977Z,93.60
2018-11-23T19:07:53.545Z,93.40
2018-11-23T19:10:21.824Z,93.10
2018-11-23T19:12:51.841Z,93.20
2018-11-23T19:15:25.264Z,93.10
2018-11-23T19:17:48.391Z,93.00
2018-11-23T19:20:24.532Z,92.70
2018-11-23T19:22:53.873Z,92.60
2018-11-23T19:25:23.284Z,92.50
2018-11-23T19:27:51.516Z,92.40
2018-11-23T19:30:28.032Z,92.10
2018-11-23T19:32:49.741Z,92.00
2018-11-23T19:35:18.064Z,91.60
2018-11-23T19:37:46.269Z,91.50
2018-11-23T19:40:15.413Z,91.30
2018-11-23T19:42:44.244Z,91.20
2018-11-23T19:45:14.103Z,91.20
2018-11-23T19:47:42.257Z,90.80
2018-11-23T19:50:14.038Z,90.60
2018-11-23T19:52:42.791Z,90.60
2018-11-23T19:55:12.191Z,91.00
2018-11-23T19:57:40.520Z,90.80
2018-11-23T20:00:19.419Z,90.30
2018-11-23T20:02:47.688Z,90.20
2018-11-23T20:05:16.751Z,90.40
2018-11-23T20:07:46.409Z,90.30
2018-11-23T20:10:16.630Z,90.50
2018-11-23T20:12:46.490Z,90.60
2018-11-23T20:15:16.057Z,90.60
2018-11-23T20:17:44.834Z,91.00
2018-11-23T20:20:14.243Z,91.00
2018-11-23T20:22:42.994Z,91.10
2018-11-23T20:25:13.389Z,91.30
2018-11-23T20:27:41.529Z,91.10
2018-11-23T20:30:17.061Z,90.60
2018-11-23T20:32:45.233Z,90.50
2018-11-23T20:35:14.908Z,90.60
2018-11-23T20:37:43.280Z,90.50
2018-11-23T20:40:14.405Z,90.50
2018-11-23T20:42:42.897Z,90.60
2018-11-23T20:45:11.735Z,90.50
2018-11-23T20:47:39.964Z,90.30
2018-11-23T20:50:09.725Z,90.40
2018-11-23T20:52:38.034Z,90.40
2018-11-23T20:55:08.999Z,90.30
2018-11-23T20:57:37.453Z,89.90
2018-11-23T21:00:10.425Z,90.00
2018-11-23T21:02:39.257Z,89.90
2018-11-23T21:05:08.715Z,89.80
2018-11-23T21:07:37.949Z,90.40
2018-11-23T21:10:24.121Z,90.40
2018-11-23T21:12:53.803Z,90.70
2018-11-23T21:15:26.134Z,90.80
2018-11-23T21:17:54.953Z,90.80
2018-11-23T21:20:23.487Z,90.90
2018-11-23T21:22:51.961Z,90.90
2018-11-23T21:25:20.967Z,90.90
2018-11-23T21:27:49.268Z,90.60
2018-11-23T21:30:19.659Z,90.00
2018-11-23T21:32:48.008Z,90.00
2018-11-23T21:35:16.390Z,90.20
2018-11-23T21:37:44.522Z,90.60
2018-11-23T21:40:14.517Z,90.60
2018-11-23T21:42:42.606Z,90.60
2018-11-23T21:45:13.962Z,90.70
2018-11-23T21:47:42.798Z,91.00
2018-11-23T21:50:12.203Z,91.10
2018-11-23T21:52:40.449Z,91.10
2018-11-23T21:55:10.117Z,91.20
2018-11-23T21:57:38.252Z,91.00
2018-11-23T22:00:08.522Z,91.00
2018-11-23T22:02:36.828Z,90.90
2018-11-23T22:05:05.680Z,90.80
2018-11-23T22:07:34.839Z,90.90
2018-11-23T22:10:03.615Z,90.90
2018-11-23T22:12:32.819Z,90.70
2018-11-23T22:15:01.079Z,90.60
2018-11-23T22:17:30.166Z,90.10
2018-11-23T22:19:58.497Z,90.00
2018-11-23T22:22:26.640Z,89.90
2018-11-23T22:24:54.990Z,89.80
2018-11-23T22:27:23.245Z,90.00
2018-11-23T22:29:51.571Z,90.10
2018-11-23T22:32:20.576Z,90.30
2018-11-23T22:34:48.783Z,90.20
2018-11-23T22:37:16.932Z,90.20
2018-11-23T22:39:45.093Z,90.10
2018-11-23T22:42:13.394Z,90.10
2018-11-23T22:44:42.341Z,90.20
2018-11-23T22:47:11.383Z,90.10
2018-11-23T22:49:39.513Z,90.00
2018-11-23T22:52:07.845Z,89.90
2018-11-23T22:54:36.342Z,90.20
2018-11-23T22:57:07.590Z,90.20
2018-11-23T22:59:45.749Z,90.30
2018-11-23T23:02:15.459Z,90.60
2018-11-23T23:04:43.661Z,90.40
2018-11-23T23:07:11.790Z,90.50
2018-11-23T23:09:40.055Z,90.80
2018-11-23T23:12:08.945Z,90.50
2018-11-23T23:14:37.088Z,90.70
2018-11-23T23:17:05.337Z,90.70
2018-11-23T23:19:33.427Z,90.60
2018-11-23T23:22:01.521Z,90.60
2018-11-23T23:24:29.892Z,90.90
2018-11-23T23:26:58.103Z,90.80
2018-11-23T23:29:26.418Z,90.80
2018-11-23T23:31:54.736Z,90.70
2018-11-23T23:34:23.414Z,90.60
2018-11-23T23:36:52.256Z,90.70
2018-11-23T23:39:20.584Z,90.30
2018-11-23T23:41:48.846Z,90.10
2018-11-23T23:44:17.124Z,90.30
2018-11-23T23:46:45.945Z,90.10
2018-11-23T23:49:14.758Z,90.30
2018-11-23T23:51:42.914Z,90.40
2018-11-23T23:54:11.628Z,90.70
2018-11-23T23:56:39.940Z,90.40
2018-11-23T23:59:09.965Z,90.10
